航空気象通報

ウインドサーファーのための航空気象通報による風予報です。

5/24-5/26の航空気象通報

2017年05月24日 23時47分13秒 | TAF
羽田空港
TAF RJTT 241106Z 2412/2518 18008KT 6000 FEW008 BKN015
TEMPO 2418/2503 4000 BR FEW005 BKN008
BECMG 2419/2421 05005KT
BECMG 2509/2512 07010KT
TEMPO 2512/2518 4000 -SHRA BR FEW005 BKN008
日本時間24日21時-25日04時:180度から8ノットの風
04-06時:風が変化
06-18時:050度から5ノットの風
18-21時:風が変化
21時-26日03時:070度から10ノットの風

但し、25日21時-26日03時の間:ときどき

静岡空港
TAF RJNS 241106Z 2412/2518 32004KT 9999 FEW020 BKN050
BECMG 2500/2503 08005KT
TEMPO 2506/2509 4000 -SHRA BR FEW005 BKN008
BECMG 2509/2512 02004KT
TEMPO 2509/2518 3000 SHRA BR FEW003 BKN005
日本時間24日21時-25日09時:320度から4ノットの風
09-12時:風が変化
12-18時:020度から4ノットの風
18-21時:風が変化
21時-26日03時:020度から4ノットの風

但し、25日15時-26日03時の間:ときどき

福岡空港
TAF RJFF 241115Z 2412/2518 13005KT 9000 -SHRA FEW005 SCT015 BKN020
TEMPO 2412/2418 4000 -SHRA BR
BECMG 2417/2419 03003KT
TEMPO 2418/2421 4000 -SHRA BR FEW005 BKN008
BECMG 2503/2506 32010KT
BECMG 2512/2515 15005KT
日本時間22日21時-23日02時:130度から5ノットの風
02-04時:風が変化
04-12時:030度から3ノットの風
12-15時:風が変化
15-21時:320度から10ノットの風
21-24時:風が変化
24日00-03時:150度から5ノットの風


那覇空港
TAF AMD ROAH 241205Z 2412/2518 20018KT 9999 FEW008 BKN020
BECMG 2421/2423 32014KT
日本時間22日21時-23日06時:200度から18ノットの風
06-08時:風が変化
08時-24日03時:320度から14ノットの風


石垣空港
TAF ROIG 241112Z 2412/2518 27012KT 9999 -SHRA FEW008 BKN015
TEMPO 2412/2415 2000 +TSRA FEW006 BKN008 SCT020CB
BECMG 2413/2415 36012KT
TEMPO 2415/2417 4000 SHRA
日本時間22日21-22時:270度から12ノットの風
22-24時:風が変化
23日00時-24日03時:360度から12ノットの風

但し、24日21-24時の間:ときどき

マウイのカフルイ空港
PHOG 241127Z 2412/2512 04012KT P6SM FEW050
FM241900 05020G26KT P6SM FEW030 SCT050
FM250600 06012KT P6SM FEW030 SCT050 AMD LTD TO VIS AND WIND TIL 241600
ハワイ時間22日02-09時:040度から12ノットの風
09-20時:050度から20ノット、突風26ノット
20時-24日02時:060度から12ノットの風


サイパン空港
TAF PGSN 241121Z 2412/2512 11009KT P6SM FEW020
マリアナ時間22日22時-24日22時:110度から9ノットの風
コメント
この記事をはてなブックマークに追加

5/22-5/24の航空気象通報

2017年05月22日 23時32分26秒 | TAF
羽田空港
TAF RJTT 221105Z 2212/2318 20014KT 9999 FEW025
日本時間22日22時-24日03時:200度から14ノットの風


静岡空港
TAF RJNS 221105Z 2212/2318 28006KT 9999 FEW010 SCT020
BECMG 2300/2303 18010KT
BECMG 2309/2312 30004KT
日本時間22日22時-23日09時:280度から6ノットの風
09-12時:風が変化
12-18時:180度から6ノットの風
18-21時:風が変化
21時-24日03時:300度から4ノットの風


福岡空港
TAF RJFF 221106Z 2212/2318 15006KT 9999 FEW040
BECMG 2300/2303 32010KT
BECMG 2309/2312 14003KT
日本時間22日21時-23日09時:150度から6ノットの風
09-12時:風が変化
12-18時:320度から10ノットの風
18-21時:風が変化
21時-24日03時:140度から3ノットの風


那覇空港
TAF AMD ROAH 221309Z 2213/2318 07008KT 9999 FEW010 BKN020
TEMPO 2213/2221 FEW006 BKN008
BECMG 2312/2315 11005KT
日本時間22日22時-23日21時:070度から8ノットの風
21-24時:風が変化
24日00-03時:110度から5ノットの風


石垣空港
TAF ROIG 221108Z 2212/2318 04008KT 9999 FEW015
BECMG 2312/2315 15005KT
日本時間22日21時-23日21時:040度から8ノットの風
21-24時:風が変化
24日00-03時:150度から5ノットの風


マウイのカフルイ空港
PHOG 221139Z 2212/2312 04011KT P6SM VCSH SCT040 BKN050
FM221800 05016G24KT P6SM FEW035 SCT050
FM222100 05022G30KT P6SM FEW035 SCT050
FM230500 05014G20KT P6SM VCSH SCT035 BKN050 AMD LTD TO VIS AND WIND TIL 221600
ハワイ時間22日02-08時:040度から11ノットの風

08-11時:050度から16ノット、突風24ノット
11-19時:050度から22ノット、突風30ノット

19時-23日02時:050度から14ノット、突風20ノット


サイパン空港
TAF PGSN 221129Z 2212/2312 11004KT P6SM SCT024
FM230000 09011KT P6SM SCT020
マリアナ時間22日22時-23日10時:110度から4ノットの風
10-22時:090度から11ノットの風

コメント
この記事をはてなブックマークに追加

5/21-5/23の航空気象通報

2017年05月21日 22時57分07秒 | TAF
羽田空港
TAF RJTT 211106Z 2112/2218 20010KT 9999 FEW030
BECMG 2203/2206 19020KT
TEMPO 2206/2209 19022G32KT
日本時間21日21時-22日12時:200度から10ノットの風
12-15時:風が変化
15時-23日03時:190度から20ノットの風
但し、22日15-18時の間:ときどき190度から22ノット、突風32ノット


静岡空港
TAF RJNS 211105Z 2112/2218 28006KT 9999 FEW008 SCT015
BECMG 2200/2203 22012KT
BECMG 2209/2212 28006KT
日本時間21日21時-22日09時:280度から6ノットの風
09-12時:風が変化
12-18時:220度から12ノットの風
18-21時:風が変化
21時-23日03時:280度から6ノットの風


福岡空港
TAF RJFF 211106Z 2112/2218 36005KT 9999 FEW035
BECMG 2112/2114 15004KT
BECMG 2200/2203 32011KT
BECMG 2209/2212 15004KT
日本時間21日21時:360度から5ノットの風
21-23時:風が変化
23時-22日09時:150度から4ノットの風
09-12時:風が変化
12-18時:320度から11ノットの風
18-21時:風が変化
21時-23日03時:150度から4ノットの風


那覇空港
TAF ROAH 211105Z 2112/2218 10010KT 9999 FEW020 BKN045
BECMG 2117/2119 07010KT
日本時間21日21時-22日02時:100度から10ノットの風
02-04時:風が変化
04時-23日03時:070度から10ノットの風


石垣空港
TAF ROIG 211107Z 2112/2218 05010KT 9999 FEW010 BKN020
日本時間21日21時-23日03時:050度から10ノットの風


マウイのカフルイ空港
PHOG 211131Z 2112/2212 05006KT P6SM SKC
FM212000 05016KT P6SM FEW030 SCT050
FM220600 05010KT P6SM FEW030 SCT050 AMD LTD TO VIS AND WIND TIL 211600
ハワイ時間21日02-10時:050度から6ノットの風
10-20時:050度から16ノットの風
20時-23日02時:050度から10ノットの風


サイパン空港
TAF PGSN 211122Z 2112/2212 10007KT P6SM SCT020
FM220000 10012KT P6SM VCSH SCT022
マリアナ時間21日22時-22日10時:100度から7ノットの風
10-22時:100度から12ノットの風

コメント
この記事をはてなブックマークに追加

5/20-5/22の航空気象通報

2017年05月20日 22時44分46秒 | TAF
羽田空港
TAF RJTT 201105Z 2012/2118 19012KT 9999 FEW020
BECMG 2016/2018 30004KT
BECMG 2022/2100 10005KT
BECMG 2100/2103 19014KT
日本時間20日21時-21日01時:190度から12ノットの風
01-03時:風が変化
03-07時:300度から4ノットの風
07-09時:風が変化
09時:100度から5ノットの風
09-12時:風が変化
12時-22日03時:190度から14ノットの風


静岡空港
TAF RJNS 201106Z 2012/2118 29006KT 9999 FEW020
TEMPO 2018/2021 4000 BR FEW003 BKN007
BECMG 2022/2100 16008KT
BECMG 2106/2109 24010KT
日本時間20日21時-20日09時:280度から4ノットの風
09-12時:風が変化
12-15時:160度から8ノットの風
15-18時:風が変化
18時-22日03時:240度から10ノットの風

但し、21日03-06時の間:ときどき

福岡空港
TAF RJFF 201106Z 2012/2118 15006KT CAVOK
BECMG 2100/2103 32011KT
BECMG 2112/2115 16005KT
日本時間20日21時-21日09時:150度から6ノットの風
09-12時:風が変化
12-21時:320度から11ノットの風
21-24時:風が変化
22日00-03時:160度から5ノットの風


那覇空港
TAF ROAH 201106Z 2012/2118 11010KT 9999 FEW030
TEMPO 2016/2019 4000 SHRA
BECMG 2021/2023 08010KT
TEMPO 2022/2103 4000 SHRA
TEMPO 2109/2115 3000 SHRA FEW006 BKN008
日本時間20日21時-21日06時:110度から10ノットの風
06-08時:風が変化
08時-22日03時:080度から10ノットの風

但し、21日01-04時の間:ときどき
但し、21日07-12時の間:ときどき
但し、21日18-24時の間:ときどき

石垣空港
TAF ROIG 201110Z 2012/2118 08016KT 9999 FEW015 BKN030
TEMPO 2012/2014 4000 SHRA FEW004 BKN008
日本時間20日21時-22日03時:080度から16ノットの風

但し、20日21-23時の間:ときどき

マウイのカフルイ空港
PHOG 201128Z 2012/2112 VRB05KT P6SM FEW020 SCT050
FM202100 04014G20KT P6SM FEW030 SCT060
FM210500 05011KT P6SM FEW025 SCT050 AMD LTD TO VIS AND WIND TIL 201600
ハワイ時間20日02-11時:風向不定5ノットの風
11-19時:040度から14ノット、突風20ノット
19時-21日02時:050度から11ノットの風


サイパン空港
TAF PGSN 191125Z 1912/2012 07011KT P6SM VCSH FEW020 SCT120
FM192300 08014G20KT P6SM VCSH FEW020 SCT050
マリアナ時間19日22時-20日09時:070度から11ノットの風
09-22時:080度から14ノット、突風20ノット

コメント
この記事をはてなブックマークに追加

5/19-5/21の航空気象通報

2017年05月19日 22時20分26秒 | TAF
羽田空港
TAF RJTT 191105Z 1912/2018 19016KT 9999 FEW030
BECMG 1917/1919 35004KT
BECMG 1922/2000 12006KT
BECMG 2000/2003 18018KT
BECMG 2015/2018 19006KT
日本時間19日21時-20日02時:190度から16ノットの風
02-04時:風が変化
04-07時:350度から4ノットの風
07-09時:風が変化
09時:120度から6ノットの風
09-12時:風が変化
12-24時:180度から18ノットの風
21日00-03時:190度から6ノットの風


静岡空港
TAF RJNS 191106Z 1912/2018 28004KT 9999 FEW020
TEMPO 1913/1916 4000 BR
BECMG 2000/2003 22010KT
BECMG 2012/2015 28004KT
TEMPO 2015/2018 FEW003 BKN005
日本時間19日21時-20日09時:280度から4ノットの風
09-12時:風が変化
12-21時:220度から10ノットの風
21-24時:風が変化
21日00-03時:280度から4ノットの風

但し、21日00-03時の間:ときどき

福岡空港
TAF RJFF 191106Z 1912/2018 01004KT 9999 FEW040
BECMG 1913/1915 15005KT
BECMG 2000/2003 32007KT
BECMG 2012/2015 15006KT
日本時間19日21-22時:010度から4ノットの風
22-24時:風が変化
20日00-09時:150度から5ノットの風
09-12時:風が変化
12-21時:320度から7ノットの風
21-24時:風が変化
21日00-03時:150度から6ノットの風


那覇空港
TAF ROAH 191105Z 1912/2018 10008KT 9999 FEW025
日本時間19日21時-21日03時:100度から8ノットの風


石垣空港
TAF ROIG 191110Z 1912/2018 09012KT 9999 FEW010 BKN020
TEMPO 2000/2006 4000 SHRA FEW006 BKN008
TEMPO 2006/2012 3000 +SHRA FEW006 BKN008 FEW020CB
日本時間19日21時-21日03時:090度から12ノットの風

但し、20日09-21時の間:ときどき

マウイのカフルイ空港
PHOG 191132Z 1912/2012 VRB03KT P6SM FEW050
FM192000 04014G24KT P6SM FEW040 SCT050
FM200100 04012G20KT P6SM VCSH SCT030 BKN050 AMD LTD TO VIS AND WIND TIL 191600
ハワイ時間19日02-10時:風向不定3ノットの風
10-15時:040度から14ノット、突風24ノット

15時-20日02時:040度から12ノット、突風20ノット


サイパン空港
TAF PGSN 191125Z 1912/2012 07011KT P6SM VCSH FEW020 SCT120
FM192300 08014G20KT P6SM VCSH FEW020 SCT050
マリアナ時間19日22時-20日09時:070度から11ノットの風
09-22時:080度から14ノット、突風20ノット

コメント
この記事をはてなブックマークに追加